Aérodrome :
LOGIN :

S'inscrire | Disclaimer

   EN    FR    IT 

 










Légende :    VFR   VFR Marginal   IFR   IFR Intensif   IFR Très Intensif
Visi : 
Plafond : 
>= 8 km
>= 3000ft
5 à 8 km
1000 à 3000 ft
1500m à 5 km
500 à 1000 ft
800 à 1500m
200 à 500 ft
< 800m
< 200 ft
Symboles :   Orages  Brouillard  Fortes neiges  Fortes précipitations  Vent > 20 kt
SIGMETs :   Divers  Orages  Givrage  Turbulence  Onde Orograph.  Cendres Volcan.







- Altitude de l'aérodrome : 184 ft
- Code IATA : BRU


EBBR - Bruxelles

DERNIER METAR :
  • 191320Z 28003KT 250V310 9999 FEW028 06/04 Q1021 NOSIG

METARs EXPIRÉS :
  • 191250Z 31004KT 280V350 9999 -SHRA SCT015 06/04 Q1021 NOSIG
  • 191220Z 28005KT 250V320 9999 -RA BKN015 07/05 Q1021 NOSIG
  • 191150Z 28008KT 9999 -RA BKN023 07/04 Q1021 NOSIG
  • 191120Z 27008KT 9999 SCT038 07/03 Q1021 NOSIG
  • 191050Z 27010KT CAVOK 06/03 Q1021 NOSIG

TAF TAF EBBR
Valide du 19 à 12h jusqu'au 20 à 18h UTC


191100Z 1912/2018 28010KT 9999 FEW030 SCT045
BECMG 2000/2002 22007KT
BECMG 2010/2012 SCT008 BKN013
TEMPO 2812/2818 3500 DZRA BKN008
PROB30
TEMPO 2014/2017 24015G27KT
Pas de NOTAMs connus pour ce terrain.



MET'MAP, la Météo Aéronautique d'un coup d'oeil ! - Copyright ORBIFLY Décembre 2007 - Disclaimer

ORBIFLY MET'MAP TEAM :

Programmation & Développement : Alexandra Zaïnal
Conception & Développement : Baudouin d'Aumeries
Co-Programmation & Développement : Marc-Olivier Méhu
Soutien technique & logistique : Manuel Goepfert

Contact : metmap@orbifly.com




SOURCES & CREDITS :

   NOAA